»·PEaware :: N477MF KELY-KBOI

N477MF :: KELY-KBOI

FLIGHT INFORMATION

Flight Status: Arrived
Operator: Privately registered:
United States
More flights under this callsign
Pilot: Timothy K. (25673)
Aircraft: BEECH AIRCRAFT SUPER KING AIR 350
(B350)
More flights by this aircraft type
Origin: KELY Ely
United States
Destination: KBOI Boise Air Terminal/Gowen
United States
More flights between these airports :: More routes between these airports
Route: LYONS ROARR
File this flight plan on PilotEdge
Remarks: Garmin Pilot, ASXP
Altitude:
(Current/Filed)
24,000ft
Speed:
(Current/Filed)
300kts
Departed: 11-Sep-20 06:59 PM
Arrived: 11-Sep-20 08:02 PM
Distance/Time
Traveled:
264nm/1:03
Distance/Time
To Go:
Arrived

Flight Plot

Page will automatically refresh every two minutes.

Flight plan parsing failed; only flown route is shown


Map Options




Map Legend


Flown Route
Filed Route
Departure Airport
Arrival Airport
Navaid (VOR, NDB)
Fix

Horizontal Profiles

Position Reports

Time Latitude Longitude Heading Altitude Ground
Speed
11-Sep-20 18:29 39.300562 -114.835797 0 6241ft 0kts
11-Sep-20 18:30 39.300562 -114.835797 194 6241ft 0kts
11-Sep-20 18:31 39.300562 -114.835797 194 6241ft 0kts
11-Sep-20 18:32 39.300562 -114.835797 194 6241ft 0kts
11-Sep-20 18:33 39.300562 -114.835797 194 6241ft 0kts
11-Sep-20 18:34 39.300562 -114.835797 194 6241ft 0kts
11-Sep-20 18:35 39.300562 -114.835797 194 6241ft 0kts
11-Sep-20 18:36 39.300562 -114.835797 194 6241ft 0kts
11-Sep-20 18:37 39.300562 -114.835797 194 6241ft 0kts
11-Sep-20 18:38 39.300562 -114.835797 194 6241ft 0kts
11-Sep-20 18:39 39.300562 -114.835797 194 6241ft 0kts
11-Sep-20 18:40 39.300562 -114.835797 194 6241ft 0kts
11-Sep-20 18:41 39.300562 -114.835797 194 6241ft 0kts
11-Sep-20 18:42 39.300562 -114.835797 194 6241ft 0kts
11-Sep-20 18:43 39.300562 -114.835797 194 6241ft 0kts
11-Sep-20 18:44 39.300562 -114.835797 194 6241ft 0kts
11-Sep-20 18:45 39.300562 -114.835797 194 6241ft 0kts
11-Sep-20 18:46 39.300562 -114.835797 194 6241ft 0kts
11-Sep-20 18:47 39.300562 -114.835797 194 6241ft 0kts
11-Sep-20 18:48 39.300562 -114.835797 194 6241ft 0kts
11-Sep-20 18:49 39.300561 -114.835797 194 6241ft 0kts
11-Sep-20 18:50 39.300561 -114.835797 194 6241ft 0kts
11-Sep-20 18:51 39.300561 -114.835797 194 6241ft 0kts
11-Sep-20 18:53 39.300474 -114.836308 278 6241ft 6kts
11-Sep-20 18:54 39.298267 -114.837625 193 6245ft 13kts
11-Sep-20 18:55 39.294727 -114.838725 193 6252ft 12kts
11-Sep-20 18:56 39.292734 -114.839668 261 6255ft 0kts
11-Sep-20 18:57 39.292734 -114.839668 261 6255ft 0kts
11-Sep-20 18:58 39.292727 -114.839763 267 6255ft 3kts
11-Sep-20 18:59 39.296276 -114.839503 13 6252ft 88kts
11-Sep-20 19:00 39.331329 -114.830554 348 7577ft 158kts
11-Sep-20 19:01 39.375223 -114.838415 358 9692ft 166kts
11-Sep-20 19:02 39.421515 -114.837282 359 12194ft 172kts
11-Sep-20 19:03 39.470071 -114.835504 359 14436ft 180kts
11-Sep-20 19:04 39.521064 -114.833592 359 16766ft 188kts
11-Sep-20 19:05 39.574391 -114.831579 359 18997ft 198kts
11-Sep-20 19:06 39.630558 -114.829443 359 21101ft 206kts
11-Sep-20 19:06 39.678199 -114.827606 359 22817ft 208kts
11-Sep-20 19:08 39.748208 -114.824992 359 24280ft 244kts
11-Sep-20 19:09 39.824267 -114.821931 359 24303ft 296kts
11-Sep-20 19:09 39.895459 -114.819095 359 24290ft 317kts
11-Sep-20 19:11 39.999917 -114.814952 359 24279ft 323kts
11-Sep-20 19:12 40.089134 -114.811457 359 24281ft 320kts
11-Sep-20 19:12 40.163021 -114.808601 359 24283ft 319kts
11-Sep-20 19:13 40.251857 -114.805160 359 24238ft 320kts
11-Sep-20 19:15 40.355579 -114.801133 359 24192ft 320kts
11-Sep-20 19:15 40.429314 -114.798267 359 24191ft 319kts
11-Sep-20 19:16 40.518250 -114.794796 359 24191ft 319kts
11-Sep-20 19:17 40.606922 -114.791330 359 24192ft 319kts
11-Sep-20 19:18 40.695359 -114.787866 359 24206ft 319kts
11-Sep-20 19:19 40.783815 -114.784395 359 24236ft 318kts
11-Sep-20 19:20 40.872381 -114.780902 359 24246ft 319kts
11-Sep-20 19:21 40.960839 -114.777400 359 24246ft 319kts
11-Sep-20 19:22 41.049841 -114.773860 359 24245ft 320kts
11-Sep-20 19:23 41.139080 -114.770323 359 24213ft 319kts
11-Sep-20 19:24 41.227477 -114.766794 359 24247ft 320kts
11-Sep-20 19:25 41.316432 -114.763243 359 24242ft 320kts
11-Sep-20 19:26 41.405330 -114.759685 359 24221ft 321kts
11-Sep-20 19:27 41.487239 -114.756399 359 24211ft 321kts
11-Sep-20 19:28 41.576353 -114.752801 359 24210ft 321kts
11-Sep-20 19:29 41.665553 -114.749207 359 24210ft 321kts
11-Sep-20 19:30 41.754799 -114.745583 359 24209ft 321kts
11-Sep-20 19:31 41.843993 -114.741959 359 24209ft 321kts
11-Sep-20 19:32 41.932915 -114.738252 359 23349ft 317kts
11-Sep-20 19:33 42.020369 -114.734629 358 22352ft 313kts
11-Sep-20 19:34 42.106563 -114.731070 358 21358ft 309kts
11-Sep-20 19:35 42.190983 -114.736992 335 20348ft 300kts
11-Sep-20 19:36 42.267455 -114.780727 334 19377ft 298kts
11-Sep-20 19:37 42.343225 -114.823899 334 18395ft 296kts
11-Sep-20 19:38 42.418893 -114.866686 334 17404ft 294kts
11-Sep-20 19:39 42.494030 -114.909252 334 16407ft 292kts
11-Sep-20 19:40 42.561698 -114.947705 334 15979ft 278kts
11-Sep-20 19:41 42.631147 -114.987352 334 15979ft 265kts
11-Sep-20 19:42 42.698493 -115.025877 334 15975ft 261kts
11-Sep-20 19:43 42.765370 -115.064197 334 15965ft 260kts
11-Sep-20 19:44 42.831930 -115.102443 334 15957ft 263kts
11-Sep-20 19:45 42.901709 -115.142693 334 15935ft 279kts
11-Sep-20 19:46 42.973514 -115.184040 334 16016ft 281kts
11-Sep-20 19:47 43.045545 -115.225709 334 16091ft 283kts
11-Sep-20 19:48 43.118303 -115.267878 334 16091ft 284kts
11-Sep-20 19:49 43.190698 -115.309945 334 16092ft 285kts
11-Sep-20 19:50 43.263779 -115.352520 334 16088ft 285kts
11-Sep-20 19:51 43.312243 -115.432158 295 16091ft 281kts
11-Sep-20 19:52 43.344240 -115.530169 294 16090ft 282kts
11-Sep-20 19:53 43.375921 -115.628766 294 16092ft 282kts
11-Sep-20 19:54 43.403429 -115.728251 294 15272ft 270kts
11-Sep-20 19:55 43.431275 -115.817557 292 13717ft 242kts
11-Sep-20 19:56 43.456118 -115.901177 292 11554ft 232kts
11-Sep-20 19:57 43.482493 -115.981072 296 9356ft 228kts
11-Sep-20 19:58 43.509454 -116.059416 295 7161ft 226kts
11-Sep-20 19:59 43.535940 -116.135604 297 5420ft 183kts
11-Sep-20 20:00 43.553904 -116.189172 296 3168ft 136kts
11-Sep-20 20:01 43.562823 -116.215291 294 2854ft 31kts
11-Sep-20 20:02 43.564865 -116.217726 296 2853ft 13kts
11-Sep-20 20:03 43.566991 -116.223951 295 2846ft 20kts
11-Sep-20 20:04 43.569042 -116.228413 23 2839ft 9kts
11-Sep-20 20:05 43.570657 -116.229762 84 2836ft 3kts

Navigation Log

Ident Type
Flight plan parsing failed, navigation log unavailable